sensor_id;sensor_type;location;lat;lon;timestamp;P1;durP1;ratioP1;P2;durP2;ratioP2
76608;SDS011;65928;53.936;27.540;2023-03-20T00:02:01;11.65;;;8.68;;
76608;SDS011;65928;53.936;27.540;2023-03-20T00:04:27;11.77;;;9.05;;
76608;SDS011;65928;53.936;27.540;2023-03-20T00:06:53;11.57;;;8.48;;
76608;SDS011;65928;53.936;27.540;2023-03-20T00:09:18;11.35;;;8.23;;
76608;SDS011;65928;53.936;27.540;2023-03-20T00:11:47;10.48;;;8.20;;
76608;SDS011;65928;53.936;27.540;2023-03-20T00:14:15;12.25;;;8.23;;
76608;SDS011;65928;53.936;27.540;2023-03-20T00:16:44;12.52;;;8.98;;
76608;SDS011;65928;53.936;27.540;2023-03-20T00:19:18;11.48;;;7.95;;
76608;SDS011;65928;53.936;27.540;2023-03-20T00:21:51;14.48;;;8.13;;
76608;SDS011;65928;53.936;27.540;2023-03-20T00:24:18;12.43;;;9.10;;
76608;SDS011;65928;53.936;27.540;2023-03-20T00:26:44;11.45;;;7.65;;
76608;SDS011;65928;53.936;27.540;2023-03-20T00:29:14;12.82;;;8.40;;
76608;SDS011;65928;53.936;27.540;2023-03-20T00:31:42;12.55;;;7.88;;
76608;SDS011;65928;53.936;27.540;2023-03-20T00:34:14;12.05;;;8.27;;
76608;SDS011;65928;53.936;27.540;2023-03-20T00:36:42;12.77;;;9.02;;
76608;SDS011;65928;53.936;27.540;2023-03-20T00:39:07;12.40;;;7.95;;
76608;SDS011;65928;53.936;27.540;2023-03-20T00:41:50;12.20;;;8.00;;
76608;SDS011;65928;53.936;27.540;2023-03-20T00:44:40;11.88;;;7.95;;
76608;SDS011;65928;53.936;27.540;2023-03-20T00:47:12;11.02;;;7.75;;
76608;SDS011;65928;53.936;27.540;2023-03-20T00:49:43;10.68;;;7.28;;
76608;SDS011;65928;53.936;27.540;2023-03-20T00:52:10;12.18;;;8.45;;
76608;SDS011;65928;53.936;27.540;2023-03-20T00:54:38;12.70;;;8.20;;
76608;SDS011;65928;53.936;27.540;2023-03-20T00:57:11;9.43;;;6.97;;
76608;SDS011;65928;53.936;27.540;2023-03-20T00:59:47;12.75;;;7.72;;
76608;SDS011;65928;53.936;27.540;2023-03-20T01:02:19;11.70;;;8.13;;
76608;SDS011;65928;53.936;27.540;2023-03-20T01:04:46;10.70;;;7.82;;
76608;SDS011;65928;53.936;27.540;2023-03-20T01:07:13;12.25;;;8.07;;
76608;SDS011;65928;53.936;27.540;2023-03-20T01:09:39;11.70;;;7.57;;
76608;SDS011;65928;53.936;27.540;2023-03-20T01:12:04;11.07;;;8.18;;
76608;SDS011;65928;53.936;27.540;2023-03-20T01:14:31;12.20;;;8.50;;
76608;SDS011;65928;53.936;27.540;2023-03-20T01:16:57;11.93;;;8.23;;
76608;SDS011;65928;53.936;27.540;2023-03-20T01:19:22;13.63;;;7.90;;
76608;SDS011;65928;53.936;27.540;2023-03-20T01:21:48;11.13;;;7.22;;
76608;SDS011;65928;53.936;27.540;2023-03-20T01:24:13;11.57;;;7.88;;
76608;SDS011;65928;53.936;27.540;2023-03-20T01:26:39;12.07;;;8.60;;
76608;SDS011;65928;53.936;27.540;2023-03-20T01:29:39;10.75;;;7.30;;
76608;SDS011;65928;53.936;27.540;2023-03-20T01:31:58;13.52;;;7.88;;
76608;SDS011;65928;53.936;27.540;2023-03-20T01:34:23;11.25;;;8.15;;
76608;SDS011;65928;53.936;27.540;2023-03-20T01:36:52;10.52;;;7.70;;
76608;SDS011;65928;53.936;27.540;2023-03-20T01:39:20;10.90;;;7.88;;
76608;SDS011;65928;53.936;27.540;2023-03-20T01:41:48;12.52;;;8.90;;
76608;SDS011;65928;53.936;27.540;2023-03-20T01:44:20;11.32;;;8.50;;
76608;SDS011;65928;53.936;27.540;2023-03-20T01:46:51;12.27;;;8.68;;
76608;SDS011;65928;53.936;27.540;2023-03-20T01:51:43;12.35;;;7.38;;
76608;SDS011;65928;53.936;27.540;2023-03-20T01:54:18;14.48;;;10.25;;
76608;SDS011;65928;53.936;27.540;2023-03-20T01:59:31;15.40;;;9.65;;
76608;SDS011;65928;53.936;27.540;2023-03-20T02:02:00;13.88;;;9.38;;
76608;SDS011;65928;53.936;27.540;2023-03-20T02:04:28;13.48;;;9.18;;
76608;SDS011;65928;53.936;27.540;2023-03-20T02:06:58;14.05;;;10.23;;
76608;SDS011;65928;53.936;27.540;2023-03-20T02:09:24;12.57;;;9.27;;
76608;SDS011;65928;53.936;27.540;2023-03-20T02:11:49;12.93;;;9.38;;
76608;SDS011;65928;53.936;27.540;2023-03-20T02:14:16;13.13;;;10.43;;
76608;SDS011;65928;53.936;27.540;2023-03-20T02:16:41;12.20;;;9.35;;
76608;SDS011;65928;53.936;27.540;2023-03-20T02:19:09;14.82;;;9.85;;
76608;SDS011;65928;53.936;27.540;2023-03-20T02:27:17;14.75;;;9.88;;
76608;SDS011;65928;53.936;27.540;2023-03-20T02:38:32;15.00;;;9.57;;
76608;SDS011;65928;53.936;27.540;2023-03-20T02:43:42;15.20;;;11.00;;
76608;SDS011;65928;53.936;27.540;2023-03-20T02:46:26;12.52;;;9.38;;
76608;SDS011;65928;53.936;27.540;2023-03-20T02:49:17;15.35;;;10.48;;
76608;SDS011;65928;53.936;27.540;2023-03-20T02:54:32;16.08;;;10.48;;
76608;SDS011;65928;53.936;27.540;2023-03-20T02:57:05;15.38;;;10.07;;
76608;SDS011;65928;53.936;27.540;2023-03-20T03:04:38;15.10;;;11.52;;
76608;SDS011;65928;53.936;27.540;2023-03-20T03:07:09;17.33;;;11.65;;
76608;SDS011;65928;53.936;27.540;2023-03-20T03:09:39;15.23;;;10.68;;
76608;SDS011;65928;53.936;27.540;2023-03-20T03:12:17;16.33;;;10.55;;
76608;SDS011;65928;53.936;27.540;2023-03-20T03:14:49;17.73;;;11.95;;
76608;SDS011;65928;53.936;27.540;2023-03-20T03:17:18;16.08;;;11.63;;
76608;SDS011;65928;53.936;27.540;2023-03-20T03:19:52;16.45;;;12.05;;
76608;SDS011;65928;53.936;27.540;2023-03-20T03:22:22;15.55;;;11.00;;
76608;SDS011;65928;53.936;27.540;2023-03-20T03:24:50;15.82;;;11.35;;
76608;SDS011;65928;53.936;27.540;2023-03-20T03:29:57;15.02;;;10.55;;
76608;SDS011;65928;53.936;27.540;2023-03-20T03:34:51;17.73;;;11.77;;
76608;SDS011;65928;53.936;27.540;2023-03-20T03:37:29;15.95;;;11.13;;
76608;SDS011;65928;53.936;27.540;2023-03-20T03:42:40;15.13;;;11.27;;
76608;SDS011;65928;53.936;27.540;2023-03-20T03:47:56;14.63;;;12.02;;
76608;SDS011;65928;53.936;27.540;2023-03-20T03:50:32;13.82;;;10.57;;
76608;SDS011;65928;53.936;27.540;2023-03-20T03:53:07;18.17;;;13.38;;
76608;SDS011;65928;53.936;27.540;2023-03-20T03:55:38;16.05;;;11.25;;
76608;SDS011;65928;53.936;27.540;2023-03-20T03:58:14;18.55;;;11.65;;
76608;SDS011;65928;53.936;27.540;2023-03-20T04:00:42;18.83;;;12.13;;
76608;SDS011;65928;53.936;27.540;2023-03-20T04:03:12;17.40;;;10.77;;
76608;SDS011;65928;53.936;27.540;2023-03-20T04:05:39;16.27;;;11.88;;
76608;SDS011;65928;53.936;27.540;2023-03-20T04:08:06;14.32;;;10.35;;
76608;SDS011;65928;53.936;27.540;2023-03-20T04:10:32;16.80;;;11.93;;
76608;SDS011;65928;53.936;27.540;2023-03-20T04:12:57;16.85;;;13.52;;
76608;SDS011;65928;53.936;27.540;2023-03-20T04:15:23;18.50;;;11.82;;
76608;SDS011;65928;53.936;27.540;2023-03-20T04:17:51;16.58;;;11.07;;
76608;SDS011;65928;53.936;27.540;2023-03-20T04:20:16;13.05;;;10.43;;
76608;SDS011;65928;53.936;27.540;2023-03-20T04:22:42;15.32;;;12.07;;
76608;SDS011;65928;53.936;27.540;2023-03-20T04:25:08;16.60;;;11.45;;
76608;SDS011;65928;53.936;27.540;2023-03-20T04:27:39;17.80;;;13.23;;
76608;SDS011;65928;53.936;27.540;2023-03-20T04:30:04;16.27;;;10.98;;
76608;SDS011;65928;53.936;27.540;2023-03-20T04:32:31;16.25;;;11.20;;
76608;SDS011;65928;53.936;27.540;2023-03-20T04:34:56;15.10;;;10.80;;
76608;SDS011;65928;53.936;27.540;2023-03-20T04:37:21;15.57;;;10.52;;
76608;SDS011;65928;53.936;27.540;2023-03-20T04:39:47;18.92;;;11.68;;
76608;SDS011;65928;53.936;27.540;2023-03-20T04:42:12;15.25;;;10.88;;
76608;SDS011;65928;53.936;27.540;2023-03-20T04:44:38;17.52;;;12.50;;
76608;SDS011;65928;53.936;27.540;2023-03-20T04:47:04;15.63;;;12.50;;
76608;SDS011;65928;53.936;27.540;2023-03-20T04:49:29;17.80;;;11.90;;
76608;SDS011;65928;53.936;27.540;2023-03-20T04:51:55;15.82;;;10.52;;
76608;SDS011;65928;53.936;27.540;2023-03-20T04:54:20;15.25;;;10.30;;
76608;SDS011;65928;53.936;27.540;2023-03-20T04:56:46;15.15;;;11.77;;
76608;SDS011;65928;53.936;27.540;2023-03-20T04:59:11;17.52;;;11.93;;
76608;SDS011;65928;53.936;27.540;2023-03-20T05:01:37;15.82;;;10.82;;
76608;SDS011;65928;53.936;27.540;2023-03-20T05:04:02;17.48;;;11.68;;
76608;SDS011;65928;53.936;27.540;2023-03-20T05:06:28;19.20;;;12.77;;
76608;SDS011;65928;53.936;27.540;2023-03-20T05:08:55;15.57;;;11.35;;
76608;SDS011;65928;53.936;27.540;2023-03-20T05:11:23;16.80;;;11.23;;
76608;SDS011;65928;53.936;27.540;2023-03-20T05:13:49;16.75;;;11.82;;
76608;SDS011;65928;53.936;27.540;2023-03-20T05:16:14;15.27;;;10.52;;
76608;SDS011;65928;53.936;27.540;2023-03-20T05:18:40;18.13;;;11.32;;
76608;SDS011;65928;53.936;27.540;2023-03-20T05:21:06;17.77;;;12.35;;
76608;SDS011;65928;53.936;27.540;2023-03-20T05:23:32;20.48;;;12.27;;
76608;SDS011;65928;53.936;27.540;2023-03-20T05:25:57;16.27;;;11.40;;
76608;SDS011;65928;53.936;27.540;2023-03-20T05:28:22;17.73;;;12.35;;
76608;SDS011;65928;53.936;27.540;2023-03-20T05:30:48;25.00;;;11.23;;
76608;SDS011;65928;53.936;27.540;2023-03-20T05:33:13;14.30;;;9.68;;
76608;SDS011;65928;53.936;27.540;2023-03-20T05:35:38;16.33;;;11.50;;
76608;SDS011;65928;53.936;27.540;2023-03-20T05:38:04;16.02;;;11.63;;
76608;SDS011;65928;53.936;27.540;2023-03-20T05:40:30;18.17;;;11.20;;
76608;SDS011;65928;53.936;27.540;2023-03-20T05:42:55;15.45;;;12.85;;
76608;SDS011;65928;53.936;27.540;2023-03-20T05:45:20;15.45;;;11.00;;
76608;SDS011;65928;53.936;27.540;2023-03-20T05:47:46;16.83;;;11.80;;
76608;SDS011;65928;53.936;27.540;2023-03-20T05:50:11;15.43;;;12.13;;
76608;SDS011;65928;53.936;27.540;2023-03-20T05:52:37;19.05;;;12.73;;
76608;SDS011;65928;53.936;27.540;2023-03-20T05:55:02;16.30;;;10.95;;
76608;SDS011;65928;53.936;27.540;2023-03-20T05:57:28;16.60;;;13.00;;
76608;SDS011;65928;53.936;27.540;2023-03-20T05:59:54;17.42;;;11.77;;
76608;SDS011;65928;53.936;27.540;2023-03-20T06:02:19;17.92;;;12.18;;
76608;SDS011;65928;53.936;27.540;2023-03-20T06:04:44;20.80;;;13.63;;
76608;SDS011;65928;53.936;27.540;2023-03-20T06:07:10;18.90;;;13.15;;
76608;SDS011;65928;53.936;27.540;2023-03-20T06:09:35;18.15;;;14.30;;
76608;SDS011;65928;53.936;27.540;2023-03-20T06:12:00;18.52;;;13.77;;
76608;SDS011;65928;53.936;27.540;2023-03-20T06:14:26;18.95;;;14.38;;
76608;SDS011;65928;53.936;27.540;2023-03-20T06:16:51;20.08;;;15.23;;
76608;SDS011;65928;53.936;27.540;2023-03-20T06:19:18;19.35;;;14.43;;
76608;SDS011;65928;53.936;27.540;2023-03-20T06:21:44;17.55;;;14.77;;
76608;SDS011;65928;53.936;27.540;2023-03-20T06:24:09;19.60;;;13.30;;
76608;SDS011;65928;53.936;27.540;2023-03-20T06:26:34;20.25;;;14.57;;
76608;SDS011;65928;53.936;27.540;2023-03-20T06:29:00;19.80;;;14.68;;
76608;SDS011;65928;53.936;27.540;2023-03-20T06:31:25;21.17;;;14.15;;
76608;SDS011;65928;53.936;27.540;2023-03-20T06:33:51;17.95;;;13.68;;
76608;SDS011;65928;53.936;27.540;2023-03-20T06:36:16;19.02;;;13.52;;
76608;SDS011;65928;53.936;27.540;2023-03-20T06:38:42;19.48;;;12.98;;
76608;SDS011;65928;53.936;27.540;2023-03-20T06:41:07;18.15;;;14.35;;
76608;SDS011;65928;53.936;27.540;2023-03-20T06:43:32;17.33;;;12.88;;
76608;SDS011;65928;53.936;27.540;2023-03-20T06:45:58;17.48;;;12.55;;
76608;SDS011;65928;53.936;27.540;2023-03-20T06:48:24;16.98;;;11.70;;
76608;SDS011;65928;53.936;27.540;2023-03-20T06:50:49;15.38;;;10.90;;
76608;SDS011;65928;53.936;27.540;2023-03-20T06:53:16;18.02;;;13.23;;
76608;SDS011;65928;53.936;27.540;2023-03-20T06:55:42;20.00;;;13.85;;
76608;SDS011;65928;53.936;27.540;2023-03-20T06:58:10;19.13;;;11.95;;
76608;SDS011;65928;53.936;27.540;2023-03-20T07:00:35;15.43;;;10.93;;
76608;SDS011;65928;53.936;27.540;2023-03-20T07:03:01;13.93;;;11.68;;
76608;SDS011;65928;53.936;27.540;2023-03-20T07:05:27;16.65;;;10.80;;
76608;SDS011;65928;53.936;27.540;2023-03-20T07:07:52;17.70;;;11.80;;
76608;SDS011;65928;53.936;27.540;2023-03-20T07:10:18;20.13;;;12.15;;
76608;SDS011;65928;53.936;27.540;2023-03-20T07:12:43;16.65;;;11.13;;
76608;SDS011;65928;53.936;27.540;2023-03-20T07:15:09;16.92;;;10.57;;
76608;SDS011;65928;53.936;27.540;2023-03-20T07:17:35;17.27;;;11.35;;
76608;SDS011;65928;53.936;27.540;2023-03-20T07:20:01;17.20;;;11.30;;
76608;SDS011;65928;53.936;27.540;2023-03-20T07:22:27;17.10;;;11.73;;
76608;SDS011;65928;53.936;27.540;2023-03-20T07:24:53;18.00;;;12.52;;
76608;SDS011;65928;53.936;27.540;2023-03-20T07:27:19;18.85;;;12.52;;
76608;SDS011;65928;53.936;27.540;2023-03-20T07:29:45;21.92;;;11.95;;
76608;SDS011;65928;53.936;27.540;2023-03-20T07:32:10;21.67;;;12.93;;
76608;SDS011;65928;53.936;27.540;2023-03-20T07:34:36;19.98;;;13.73;;
76608;SDS011;65928;53.936;27.540;2023-03-20T07:37:02;19.70;;;12.60;;
76608;SDS011;65928;53.936;27.540;2023-03-20T07:39:27;22.80;;;13.95;;
76608;SDS011;65928;53.936;27.540;2023-03-20T07:41:53;22.20;;;13.02;;
76608;SDS011;65928;53.936;27.540;2023-03-20T07:44:18;19.67;;;12.68;;
76608;SDS011;65928;53.936;27.540;2023-03-20T07:46:44;18.23;;;12.93;;
76608;SDS011;65928;53.936;27.540;2023-03-20T07:49:14;17.20;;;12.13;;
76608;SDS011;65928;53.936;27.540;2023-03-20T07:51:42;18.13;;;12.40;;
76608;SDS011;65928;53.936;27.540;2023-03-20T07:54:08;17.95;;;12.57;;
76608;SDS011;65928;53.936;27.540;2023-03-20T07:56:33;19.92;;;13.35;;
76608;SDS011;65928;53.936;27.540;2023-03-20T07:58:59;19.10;;;12.45;;
76608;SDS011;65928;53.936;27.540;2023-03-20T08:01:24;20.05;;;12.98;;
76608;SDS011;65928;53.936;27.540;2023-03-20T08:03:50;17.33;;;11.85;;
76608;SDS011;65928;53.936;27.540;2023-03-20T08:06:15;20.27;;;13.57;;
76608;SDS011;65928;53.936;27.540;2023-03-20T08:08:41;48.63;;;15.60;;
76608;SDS011;65928;53.936;27.540;2023-03-20T08:11:06;21.45;;;13.35;;
76608;SDS011;65928;53.936;27.540;2023-03-20T08:13:32;18.95;;;11.93;;
76608;SDS011;65928;53.936;27.540;2023-03-20T08:15:57;24.58;;;12.90;;
76608;SDS011;65928;53.936;27.540;2023-03-20T08:18:22;23.23;;;14.10;;
76608;SDS011;65928;53.936;27.540;2023-03-20T08:20:48;19.83;;;13.30;;
76608;SDS011;65928;53.936;27.540;2023-03-20T08:23:17;23.90;;;12.95;;
76608;SDS011;65928;53.936;27.540;2023-03-20T08:25:49;20.13;;;13.15;;
76608;SDS011;65928;53.936;27.540;2023-03-20T08:28:16;19.98;;;12.30;;
76608;SDS011;65928;53.936;27.540;2023-03-20T08:30:42;18.42;;;13.27;;
76608;SDS011;65928;53.936;27.540;2023-03-20T08:33:08;20.08;;;13.70;;
76608;SDS011;65928;53.936;27.540;2023-03-20T08:35:34;20.20;;;12.02;;
76608;SDS011;65928;53.936;27.540;2023-03-20T08:38:00;20.17;;;12.85;;
76608;SDS011;65928;53.936;27.540;2023-03-20T08:40:25;21.67;;;12.93;;
76608;SDS011;65928;53.936;27.540;2023-03-20T08:42:51;18.55;;;13.15;;
76608;SDS011;65928;53.936;27.540;2023-03-20T08:45:16;16.35;;;12.30;;
76608;SDS011;65928;53.936;27.540;2023-03-20T08:47:42;22.10;;;12.98;;
76608;SDS011;65928;53.936;27.540;2023-03-20T08:50:07;17.73;;;12.25;;
76608;SDS011;65928;53.936;27.540;2023-03-20T08:52:33;18.60;;;13.20;;
76608;SDS011;65928;53.936;27.540;2023-03-20T08:54:59;20.02;;;13.23;;
76608;SDS011;65928;53.936;27.540;2023-03-20T08:57:24;19.17;;;13.45;;
76608;SDS011;65928;53.936;27.540;2023-03-20T08:59:50;20.88;;;12.73;;
76608;SDS011;65928;53.936;27.540;2023-03-20T09:02:15;16.50;;;12.30;;
76608;SDS011;65928;53.936;27.540;2023-03-20T09:04:40;19.13;;;12.52;;
76608;SDS011;65928;53.936;27.540;2023-03-20T09:07:06;19.40;;;13.05;;
76608;SDS011;65928;53.936;27.540;2023-03-20T09:09:31;16.98;;;12.50;;
76608;SDS011;65928;53.936;27.540;2023-03-20T09:11:57;19.17;;;12.38;;
76608;SDS011;65928;53.936;27.540;2023-03-20T09:14:23;19.88;;;12.10;;
76608;SDS011;65928;53.936;27.540;2023-03-20T09:16:49;15.68;;;12.40;;
76608;SDS011;65928;53.936;27.540;2023-03-20T09:19:15;20.20;;;13.30;;
76608;SDS011;65928;53.936;27.540;2023-03-20T09:21:41;21.05;;;13.23;;
76608;SDS011;65928;53.936;27.540;2023-03-20T09:24:07;20.23;;;12.43;;
76608;SDS011;65928;53.936;27.540;2023-03-20T09:26:32;17.25;;;12.82;;
76608;SDS011;65928;53.936;27.540;2023-03-20T09:28:58;17.88;;;12.00;;
76608;SDS011;65928;53.936;27.540;2023-03-20T09:31:23;16.85;;;12.25;;
76608;SDS011;65928;53.936;27.540;2023-03-20T09:33:48;21.42;;;12.50;;
76608;SDS011;65928;53.936;27.540;2023-03-20T09:36:14;17.63;;;11.48;;
76608;SDS011;65928;53.936;27.540;2023-03-20T09:38:40;19.02;;;10.95;;
76608;SDS011;65928;53.936;27.540;2023-03-20T09:41:06;18.90;;;11.55;;
76608;SDS011;65928;53.936;27.540;2023-03-20T09:51:58;14.82;;;10.98;;
76608;SDS011;65928;53.936;27.540;2023-03-20T09:54:28;16.20;;;11.40;;
76608;SDS011;65928;53.936;27.540;2023-03-20T09:57:21;15.00;;;10.18;;
76608;SDS011;65928;53.936;27.540;2023-03-20T09:59:57;18.63;;;10.57;;
76608;SDS011;65928;53.936;27.540;2023-03-20T10:02:44;15.85;;;11.35;;
76608;SDS011;65928;53.936;27.540;2023-03-20T10:05:22;19.27;;;11.00;;
76608;SDS011;65928;53.936;27.540;2023-03-20T10:07:50;17.23;;;11.18;;
76608;SDS011;65928;53.936;27.540;2023-03-20T10:10:18;14.68;;;10.70;;
76608;SDS011;65928;53.936;27.540;2023-03-20T10:13:07;19.08;;;12.02;;
76608;SDS011;65928;53.936;27.540;2023-03-20T10:15:58;15.43;;;10.88;;
76608;SDS011;65928;53.936;27.540;2023-03-20T10:18:33;14.02;;;9.98;;
76608;SDS011;65928;53.936;27.540;2023-03-20T10:21:05;14.77;;;11.05;;
76608;SDS011;65928;53.936;27.540;2023-03-20T10:23:45;14.73;;;10.80;;
76608;SDS011;65928;53.936;27.540;2023-03-20T10:26:20;16.58;;;9.95;;
76608;SDS011;65928;53.936;27.540;2023-03-20T10:39:47;19.15;;;10.93;;
76608;SDS011;65928;53.936;27.540;2023-03-20T10:42:22;15.40;;;10.95;;
76608;SDS011;65928;53.936;27.540;2023-03-20T10:44:57;15.77;;;10.70;;
76608;SDS011;65928;53.936;27.540;2023-03-20T10:47:25;14.23;;;10.27;;
76608;SDS011;65928;53.936;27.540;2023-03-20T10:50:00;13.00;;;9.75;;
76608;SDS011;65928;53.936;27.540;2023-03-20T10:52:32;14.00;;;9.40;;
76608;SDS011;65928;53.936;27.540;2023-03-20T10:58:14;16.02;;;10.10;;
76608;SDS011;65928;53.936;27.540;2023-03-20T11:00:45;15.27;;;10.27;;
76608;SDS011;65928;53.936;27.540;2023-03-20T11:03:19;13.88;;;10.05;;
76608;SDS011;65928;53.936;27.540;2023-03-20T11:05:55;18.38;;;9.20;;
76608;SDS011;65928;53.936;27.540;2023-03-20T11:08:24;11.60;;;8.90;;
76608;SDS011;65928;53.936;27.540;2023-03-20T11:10:59;13.85;;;9.13;;
76608;SDS011;65928;53.936;27.540;2023-03-20T11:13:30;16.85;;;10.20;;
76608;SDS011;65928;53.936;27.540;2023-03-20T11:16:10;13.00;;;10.05;;
76608;SDS011;65928;53.936;27.540;2023-03-20T11:19:04;13.30;;;9.65;;
76608;SDS011;65928;53.936;27.540;2023-03-20T11:21:31;11.05;;;8.63;;
76608;SDS011;65928;53.936;27.540;2023-03-20T11:23:59;13.52;;;8.88;;
76608;SDS011;65928;53.936;27.540;2023-03-20T11:26:37;14.85;;;9.93;;
76608;SDS011;65928;53.936;27.540;2023-03-20T11:29:06;15.48;;;9.32;;
76608;SDS011;65928;53.936;27.540;2023-03-20T11:31:40;15.40;;;9.85;;
76608;SDS011;65928;53.936;27.540;2023-03-20T11:36:32;13.35;;;8.68;;
76608;SDS011;65928;53.936;27.540;2023-03-20T11:39:12;13.80;;;9.40;;
76608;SDS011;65928;53.936;27.540;2023-03-20T11:41:49;12.85;;;9.15;;
76608;SDS011;65928;53.936;27.540;2023-03-20T11:49:23;11.48;;;8.57;;
76608;SDS011;65928;53.936;27.540;2023-03-20T11:51:49;14.30;;;8.73;;
76608;SDS011;65928;53.936;27.540;2023-03-20T11:54:17;12.93;;;8.70;;
76608;SDS011;65928;53.936;27.540;2023-03-20T11:56:53;13.05;;;9.13;;
76608;SDS011;65928;53.936;27.540;2023-03-20T11:59:25;18.63;;;9.45;;
76608;SDS011;65928;53.936;27.540;2023-03-20T12:01:55;15.73;;;7.97;;
76608;SDS011;65928;53.936;27.540;2023-03-20T12:04:29;10.43;;;7.82;;
76608;SDS011;65928;53.936;27.540;2023-03-20T12:09:41;15.80;;;9.10;;
76608;SDS011;65928;53.936;27.540;2023-03-20T12:17:34;11.80;;;7.00;;
76608;SDS011;65928;53.936;27.540;2023-03-20T12:20:21;13.02;;;8.30;;
76608;SDS011;65928;53.936;27.540;2023-03-20T12:25:37;13.15;;;7.95;;
76608;SDS011;65928;53.936;27.540;2023-03-20T12:28:09;13.15;;;8.35;;
76608;SDS011;65928;53.936;27.540;2023-03-20T12:35:48;11.93;;;7.80;;
76608;SDS011;65928;53.936;27.540;2023-03-20T12:40:52;11.93;;;7.75;;
76608;SDS011;65928;53.936;27.540;2023-03-20T12:43:26;10.98;;;8.57;;
76608;SDS011;65928;53.936;27.540;2023-03-20T12:46:07;12.55;;;8.13;;
76608;SDS011;65928;53.936;27.540;2023-03-20T12:51:19;13.18;;;7.82;;
76608;SDS011;65928;53.936;27.540;2023-03-20T12:59:35;11.02;;;7.85;;
76608;SDS011;65928;53.936;27.540;2023-03-20T13:02:13;10.95;;;8.02;;
76608;SDS011;65928;53.936;27.540;2023-03-20T13:10:37;12.05;;;7.93;;
76608;SDS011;65928;53.936;27.540;2023-03-20T13:13:23;12.68;;;8.85;;
76608;SDS011;65928;53.936;27.540;2023-03-20T13:21:09;13.95;;;8.23;;
76608;SDS011;65928;53.936;27.540;2023-03-20T13:26:28;14.13;;;9.27;;
76608;SDS011;65928;53.936;27.540;2023-03-20T13:31:57;11.05;;;7.15;;
76608;SDS011;65928;53.936;27.540;2023-03-20T13:37:37;20.17;;;9.93;;
76608;SDS011;65928;53.936;27.540;2023-03-20T13:45:35;11.15;;;8.00;;
76608;SDS011;65928;53.936;27.540;2023-03-20T13:48:18;12.73;;;8.73;;
76608;SDS011;65928;53.936;27.540;2023-03-20T13:56:34;12.68;;;9.13;;
76608;SDS011;65928;53.936;27.540;2023-03-20T14:05:11;16.00;;;8.70;;
76608;SDS011;65928;53.936;27.540;2023-03-20T14:07:42;18.15;;;9.48;;
76608;SDS011;65928;53.936;27.540;2023-03-20T14:12:50;14.15;;;9.10;;
76608;SDS011;65928;53.936;27.540;2023-03-20T14:15:20;11.13;;;7.70;;
76608;SDS011;65928;53.936;27.540;2023-03-20T14:17:47;13.25;;;8.10;;
76608;SDS011;65928;53.936;27.540;2023-03-20T14:22:52;13.10;;;8.63;;
76608;SDS011;65928;53.936;27.540;2023-03-20T14:25:18;15.95;;;9.00;;
76608;SDS011;65928;53.936;27.540;2023-03-20T14:30:39;13.10;;;9.18;;
76608;SDS011;65928;53.936;27.540;2023-03-20T14:35:45;12.57;;;8.15;;
76608;SDS011;65928;53.936;27.540;2023-03-20T14:38:22;16.10;;;8.60;;
76608;SDS011;65928;53.936;27.540;2023-03-20T14:54:51;13.75;;;8.10;;
76608;SDS011;65928;53.936;27.540;2023-03-20T14:57:29;11.80;;;7.45;;
76608;SDS011;65928;53.936;27.540;2023-03-20T14:59:56;11.57;;;6.93;;
76608;SDS011;65928;53.936;27.540;2023-03-20T15:02:30;12.98;;;7.60;;
76608;SDS011;65928;53.936;27.540;2023-03-20T15:05:00;10.13;;;7.35;;
76608;SDS011;65928;53.936;27.540;2023-03-20T15:07:27;11.50;;;7.05;;
76608;SDS011;65928;53.936;27.540;2023-03-20T15:09:56;11.93;;;7.18;;
76608;SDS011;65928;53.936;27.540;2023-03-20T15:12:25;10.13;;;6.88;;
76608;SDS011;65928;53.936;27.540;2023-03-20T15:14:56;12.15;;;8.10;;
76608;SDS011;65928;53.936;27.540;2023-03-20T15:17:24;11.23;;;6.55;;
76608;SDS011;65928;53.936;27.540;2023-03-20T15:20:14;10.35;;;7.18;;
76608;SDS011;65928;53.936;27.540;2023-03-20T15:22:46;13.52;;;7.07;;
76608;SDS011;65928;53.936;27.540;2023-03-20T15:25:21;13.55;;;7.18;;
76608;SDS011;65928;53.936;27.540;2023-03-20T15:27:48;9.95;;;7.30;;
76608;SDS011;65928;53.936;27.540;2023-03-20T15:30:17;13.35;;;7.90;;
76608;SDS011;65928;53.936;27.540;2023-03-20T15:32:45;13.38;;;8.82;;
76608;SDS011;65928;53.936;27.540;2023-03-20T15:35:14;10.35;;;6.63;;
76608;SDS011;65928;53.936;27.540;2023-03-20T15:37:42;11.90;;;7.47;;
76608;SDS011;65928;53.936;27.540;2023-03-20T15:40:21;13.73;;;8.80;;
76608;SDS011;65928;53.936;27.540;2023-03-20T15:42:51;10.77;;;7.40;;
76608;SDS011;65928;53.936;27.540;2023-03-20T15:45:41;15.52;;;8.55;;
76608;SDS011;65928;53.936;27.540;2023-03-20T15:48:10;10.95;;;7.28;;
76608;SDS011;65928;53.936;27.540;2023-03-20T15:50:39;14.15;;;8.55;;
76608;SDS011;65928;53.936;27.540;2023-03-20T15:53:09;12.00;;;8.63;;
76608;SDS011;65928;53.936;27.540;2023-03-20T15:55:41;13.25;;;8.82;;
76608;SDS011;65928;53.936;27.540;2023-03-20T15:58:13;12.48;;;7.82;;
76608;SDS011;65928;53.936;27.540;2023-03-20T16:00:43;13.75;;;8.70;;
76608;SDS011;65928;53.936;27.540;2023-03-20T16:03:12;13.38;;;8.48;;
76608;SDS011;65928;53.936;27.540;2023-03-20T16:05:42;12.32;;;7.90;;
76608;SDS011;65928;53.936;27.540;2023-03-20T16:10:46;11.63;;;8.25;;
76608;SDS011;65928;53.936;27.540;2023-03-20T16:13:12;11.85;;;8.40;;
76608;SDS011;65928;53.936;27.540;2023-03-20T16:15:42;13.15;;;8.45;;
76608;SDS011;65928;53.936;27.540;2023-03-20T16:18:09;12.35;;;7.15;;
76608;SDS011;65928;53.936;27.540;2023-03-20T16:20:41;12.57;;;8.65;;
76608;SDS011;65928;53.936;27.540;2023-03-20T16:25:43;12.05;;;8.18;;
76608;SDS011;65928;53.936;27.540;2023-03-20T16:28:10;12.60;;;8.07;;
76608;SDS011;65928;53.936;27.540;2023-03-20T16:30:38;12.00;;;7.85;;
76608;SDS011;65928;53.936;27.540;2023-03-20T16:33:11;12.10;;;7.65;;
76608;SDS011;65928;53.936;27.540;2023-03-20T16:35:57;12.48;;;9.05;;
76608;SDS011;65928;53.936;27.540;2023-03-20T16:38:27;13.10;;;7.50;;
76608;SDS011;65928;53.936;27.540;2023-03-20T16:40:56;11.45;;;8.18;;
76608;SDS011;65928;53.936;27.540;2023-03-20T16:43:39;11.48;;;8.02;;
76608;SDS011;65928;53.936;27.540;2023-03-20T16:46:04;16.92;;;8.05;;
76608;SDS011;65928;53.936;27.540;2023-03-20T16:51:19;11.27;;;7.35;;
76608;SDS011;65928;53.936;27.540;2023-03-20T16:53:56;10.75;;;8.05;;
76608;SDS011;65928;53.936;27.540;2023-03-20T16:56:51;10.95;;;7.75;;
76608;SDS011;65928;53.936;27.540;2023-03-20T16:59:17;15.90;;;7.35;;
76608;SDS011;65928;53.936;27.540;2023-03-20T17:01:44;10.60;;;7.63;;
76608;SDS011;65928;53.936;27.540;2023-03-20T17:04:14;10.40;;;6.68;;
76608;SDS011;65928;53.936;27.540;2023-03-20T17:06:52;13.00;;;8.18;;
76608;SDS011;65928;53.936;27.540;2023-03-20T17:09:23;13.25;;;8.20;;
76608;SDS011;65928;53.936;27.540;2023-03-20T17:12:01;10.77;;;6.95;;
76608;SDS011;65928;53.936;27.540;2023-03-20T17:14:29;11.15;;;7.57;;
76608;SDS011;65928;53.936;27.540;2023-03-20T17:16:55;10.27;;;6.63;;